Time;durP1;ratioP1;P1;durP2;ratioP2;P2;SDS_P1;SDS_P2;PMS_P1;PMS_P2;Temp;Humidity;BMP_temperature;BMP_pressure;BME280_temperature;BME280_humidity;BME280_pressure;Samples;Min_cycle;Max_cycle;Signal;HPM_P1;HPM_P2
2021/03/13 00:00:31;;;;;;;2.65;1.70;;;6.30;99.90;;;;;;4881329;29;20037;-72
2021/03/13 00:02:58;;;;;;;3.08;2.33;;;6.10;99.90;;;;;;4889498;29;20033;-71
2021/03/13 00:05:26;;;;;;;3.22;1.92;;;6.20;99.90;;;;;;4896912;29;20024;-71
2021/03/13 00:07:52;;;;;;;2.33;1.73;;;6.30;99.90;;;;;;4893385;29;20066;-70
2021/03/13 00:10:19;;;;;;;2.33;2.13;;;6.30;99.90;;;;;;4876691;29;20032;-71
2021/03/13 00:12:45;;;;;;;3.88;1.90;;;6.30;99.90;;;;;;4878563;29;20032;-70
2021/03/13 00:15:15;;;;;;;2.78;1.85;;;6.30;99.90;;;;;;4878180;29;20029;-71
2021/03/13 00:17:43;;;;;;;3.60;2.00;;;6.20;99.90;;;;;;4877105;29;20379;-70
2021/03/13 00:20:10;;;;;;;3.00;1.85;;;6.20;99.90;;;;;;4878144;29;20029;-71
2021/03/13 00:22:36;;;;;;;3.20;2.10;;;6.30;99.90;;;;;;4878175;29;20037;-71
2021/03/13 00:25:03;;;;;;;3.50;1.80;;;6.30;99.90;;;;;;4877926;29;20033;-72
2021/03/13 00:27:29;;;;;;;3.28;1.70;;;6.40;99.90;;;;;;4888167;29;20037;-70
2021/03/13 00:29:55;;;;;;;3.08;1.80;;;6.40;99.90;;;;;;4896680;29;20124;-70
2021/03/13 00:32:20;;;;;;;3.40;1.73;;;6.50;99.90;;;;;;4879647;29;20032;-70
2021/03/13 00:34:46;;;;;;;3.60;2.13;;;6.40;99.90;;;;;;4880037;29;20172;-70
2021/03/13 00:37:12;;;;;;;1.52;1.40;;;6.50;99.90;;;;;;4879328;29;20036;-71
2021/03/13 00:39:39;;;;;;;2.30;1.70;;;6.50;99.90;;;;;;4890267;29;20123;-72
2021/03/13 00:42:05;;;;;;;6.90;1.80;;;6.60;99.90;;;;;;4876642;29;20471;-71
2021/03/13 00:44:30;;;;;;;4.65;1.50;;;6.70;99.90;;;;;;4879966;29;20052;-71
2021/03/13 00:46:56;;;;;;;2.85;1.30;;;6.70;99.90;;;;;;4879704;29;20112;-70
2021/03/13 00:49:22;;;;;;;3.58;1.40;;;6.60;99.90;;;;;;4879142;29;20051;-70
2021/03/13 00:51:47;;;;;;;3.28;1.30;;;6.60;99.90;;;;;;4897103;29;20040;-70
2021/03/13 00:54:13;;;;;;;1.48;0.88;;;6.70;99.90;;;;;;4878447;29;20055;-71
2021/03/13 00:56:39;;;;;;;1.67;1.40;;;6.80;99.90;;;;;;4879783;29;20036;-71
2021/03/13 00:59:04;;;;;;;3.17;1.10;;;6.70;99.90;;;;;;4896170;29;20051;-72
2021/03/13 01:01:30;;;;;;;1.92;1.13;;;6.70;99.90;;;;;;4896128;29;20119;-71
2021/03/13 01:03:55;;;;;;;4.80;1.02;;;6.80;99.90;;;;;;4886022;29;20127;-70
2021/03/13 01:06:21;;;;;;;1.88;0.70;;;6.80;99.90;;;;;;4878040;29;20738;-70
2021/03/13 01:08:47;;;;;;;2.80;0.70;;;6.90;99.90;;;;;;4895678;29;20060;-70
2021/03/13 01:11:12;;;;;;;1.23;0.60;;;6.80;99.90;;;;;;4878761;29;20386;-71
2021/03/13 01:13:38;;;;;;;2.47;0.57;;;6.80;99.90;;;;;;4879744;29;20076;-70
2021/03/13 01:16:04;;;;;;;3.78;1.30;;;6.80;99.90;;;;;;4896155;29;20510;-70
2021/03/13 01:18:30;;;;;;;2.40;0.60;;;6.90;99.90;;;;;;4896472;29;20490;-71
2021/03/13 01:20:56;;;;;;;3.58;0.60;;;6.90;99.90;;;;;;4902963;29;20063;-71
2021/03/13 01:23:22;;;;;;;1.85;0.50;;;6.90;99.90;;;;;;4887943;29;20173;-71
2021/03/13 01:25:47;;;;;;;2.90;1.17;;;6.90;99.90;;;;;;4895884;29;20441;-71
2021/03/13 01:28:13;;;;;;;2.85;0.60;;;6.90;99.90;;;;;;4878246;29;20462;-71
2021/03/13 01:30:41;;;;;;;1.30;0.52;;;7.00;99.90;;;;;;4896104;29;20044;-72
2021/03/13 01:33:07;;;;;;;1.52;0.63;;;7.00;99.90;;;;;;4904066;29;20028;-71
2021/03/13 01:35:34;;;;;;;1.75;0.35;;;7.10;99.90;;;;;;4914817;29;20079;-71
2021/03/13 01:38:00;;;;;;;1.90;0.70;;;7.00;99.90;;;;;;4878808;29;20497;-71
2021/03/13 01:40:26;;;;;;;2.72;0.52;;;7.00;99.90;;;;;;4865155;29;20037;-71
2021/03/13 01:42:51;;;;;;;2.63;0.60;;;7.10;99.90;;;;;;4885468;29;20029;-71
2021/03/13 01:45:20;;;;;;;3.03;1.00;;;7.10;99.90;;;;;;4869003;29;20028;-70
2021/03/13 01:47:47;;;;;;;2.92;1.05;;;7.10;99.90;;;;;;4868288;29;20057;-69
2021/03/13 01:50:14;;;;;;;1.83;0.60;;;7.10;99.90;;;;;;4884410;29;20033;-70
2021/03/13 01:52:40;;;;;;;1.83;0.50;;;7.10;99.90;;;;;;4884280;29;20029;-70
2021/03/13 01:55:08;;;;;;;1.50;0.45;;;7.00;99.90;;;;;;4884447;29;20059;-70
2021/03/13 01:57:36;;;;;;;1.02;0.60;;;7.10;99.90;;;;;;4897758;29;20508;-72
2021/03/13 02:00:04;;;;;;;2.65;0.80;;;7.00;99.90;;;;;;4888621;29;20024;-70
2021/03/13 02:02:30;;;;;;;2.70;0.50;;;7.00;99.90;;;;;;4891996;29;20405;-70
2021/03/13 02:04:56;;;;;;;2.17;0.90;;;7.00;99.90;;;;;;4896180;29;20032;-70
2021/03/13 02:07:41;;;;;;;3.45;0.57;;;7.10;99.90;;;;;;4895854;29;20063;-71
2021/03/13 02:10:16;;;;;;;1.67;0.80;;;7.10;99.90;;;;;;4897282;29;20119;-71
2021/03/13 02:13:11;;;;;;;1.83;0.50;;;7.10;99.90;;;;;;4914847;29;20029;-70
2021/03/13 02:15:45;;;;;;;3.60;0.55;;;7.10;99.90;;;;;;4898104;29;20068;-70
2021/03/13 02:18:28;;;;;;;1.25;0.60;;;7.00;99.90;;;;;;4896816;29;20537;-71
2021/03/13 02:21:15;;;;;;;1.00;0.60;;;7.00;99.90;;;;;;4897681;29;20036;-70
2021/03/13 02:24:09;;;;;;;2.75;0.57;;;7.00;99.90;;;;;;4898198;29;20382;-70
2021/03/13 02:26:45;;;;;;;0.75;0.70;;;7.00;99.90;;;;;;4897783;29;20028;-70
2021/03/13 02:29:23;;;;;;;5.05;1.00;;;7.00;99.90;;;;;;4897304;29;20033;-71
2021/03/13 02:31:49;;;;;;;1.83;0.70;;;7.00;99.90;;;;;;4897778;29;20389;-70
2021/03/13 02:34:23;;;;;;;1.20;0.70;;;7.10;99.90;;;;;;4913850;29;20055;-71
2021/03/13 02:36:51;;;;;;;1.05;0.45;;;7.10;99.90;;;;;;4914438;29;20470;-71
2021/03/13 02:39:22;;;;;;;1.85;1.27;;;7.10;99.90;;;;;;4897844;29;20036;-71
2021/03/13 02:41:51;;;;;;;1.20;0.60;;;7.20;99.90;;;;;;4901128;29;20032;-71
2021/03/13 02:44:20;;;;;;;9.82;1.85;;;7.20;99.90;;;;;;4900579;29;20063;-71
2021/03/13 02:46:48;;;;;;;1.25;0.77;;;7.00;99.90;;;;;;4918258;29;20059;-72
2021/03/13 02:49:18;;;;;;;2.30;1.00;;;7.10;99.90;;;;;;4900409;29;20064;-71
2021/03/13 02:51:46;;;;;;;2.03;0.47;;;7.00;99.90;;;;;;4918218;29;20036;-71
2021/03/13 02:54:13;;;;;;;2.42;0.80;;;7.00;99.90;;;;;;4900518;29;20474;-71
2021/03/13 02:56:42;;;;;;;3.85;0.52;;;7.00;99.90;;;;;;4900898;29;20028;-71
2021/03/13 02:59:10;;;;;;;1.85;0.55;;;7.00;99.90;;;;;;4900429;29;20035;-72
2021/03/13 03:01:36;;;;;;;2.70;0.60;;;6.90;99.90;;;;;;4900751;29;20040;-71
2021/03/13 03:04:04;;;;;;;2.05;0.73;;;6.90;99.90;;;;;;4900873;29;20132;-72
2021/03/13 03:06:38;;;;;;;1.00;0.75;;;6.90;99.90;;;;;;4916779;29;20366;-72
2021/03/13 03:09:06;;;;;;;4.97;1.40;;;6.90;99.90;;;;;;4917600;29;20521;-72
2021/03/13 03:11:33;;;;;;;1.65;0.60;;;6.90;99.90;;;;;;4900659;29;20036;-72
2021/03/13 03:13:59;;;;;;;2.13;0.90;;;6.90;99.90;;;;;;4900580;29;20032;-73
2021/03/13 03:16:26;;;;;;;3.70;0.73;;;6.80;99.90;;;;;;4900155;29;20032;-71
2021/03/13 03:18:55;;;;;;;0.60;0.30;;;6.80;99.90;;;;;;4900689;29;20115;-71
2021/03/13 03:21:21;;;;;;;0.77;0.65;;;6.80;99.90;;;;;;4899741;29;20036;-72
2021/03/13 03:23:48;;;;;;;2.10;1.05;;;6.70;99.90;;;;;;4900327;29;20134;-71
2021/03/13 03:26:14;;;;;;;2.53;0.57;;;6.70;99.90;;;;;;4916947;29;20083;-72
2021/03/13 03:28:40;;;;;;;4.07;0.77;;;6.70;99.90;;;;;;4900360;29;20064;-73
2021/03/13 03:31:06;;;;;;;1.17;0.30;;;6.70;99.90;;;;;;4900203;29;20143;-72
2021/03/13 03:33:32;;;;;;;2.72;1.05;;;6.70;99.90;;;;;;4899471;29;20462;-71
2021/03/13 03:35:58;;;;;;;1.27;0.32;;;6.70;99.90;;;;;;4899925;29;20039;-71
2021/03/13 03:38:23;;;;;;;3.55;0.73;;;6.80;99.90;;;;;;4916814;29;20048;-71
2021/03/13 03:40:49;;;;;;;1.67;0.65;;;6.80;99.90;;;;;;4916986;29;20407;-71
2021/03/13 03:43:24;;;;;;;2.78;0.30;;;6.80;99.90;;;;;;4916181;29;20160;-71
2021/03/13 03:45:57;;;;;;;0.70;0.52;;;6.70;99.90;;;;;;4900122;29;20059;-72
2021/03/13 03:48:23;;;;;;;3.03;0.63;;;6.80;99.90;;;;;;4899490;29;20032;-71
2021/03/13 03:50:50;;;;;;;2.22;0.73;;;6.90;99.90;;;;;;4899191;29;20059;-72
2021/03/13 03:53:23;;;;;;;1.33;0.40;;;6.90;99.90;;;;;;4899222;29;20182;-71
2021/03/13 03:55:52;;;;;;;0.80;0.70;;;6.90;99.90;;;;;;4899540;29;20036;-71
2021/03/13 03:58:28;;;;;;;2.72;0.80;;;6.90;99.90;;;;;;4899000;29;20032;-71
2021/03/13 04:00:57;;;;;;;1.13;0.47;;;7.00;99.90;;;;;;4899837;29;20055;-72
2021/03/13 04:03:23;;;;;;;1.98;0.50;;;7.00;99.90;;;;;;4916128;29;20119;-72
2021/03/13 04:05:50;;;;;;;2.03;0.80;;;7.00;99.90;;;;;;4916309;29;20024;-72
2021/03/13 04:08:17;;;;;;;1.67;0.50;;;7.10;99.90;;;;;;4915544;29;20386;-71
2021/03/13 04:10:50;;;;;;;0.88;0.30;;;7.00;99.90;;;;;;4899618;29;20190;-72
2021/03/13 04:13:18;;;;;;;5.07;0.75;;;7.00;99.90;;;;;;4898903;29;20123;-71
2021/03/13 04:15:46;;;;;;;1.15;0.47;;;7.00;99.90;;;;;;4899336;29;20123;-71
2021/03/13 04:18:12;;;;;;;1.40;0.43;;;7.00;99.90;;;;;;4915612;29;20028;-71
2021/03/13 04:20:39;;;;;;;2.65;0.90;;;7.00;99.90;;;;;;4899351;29;20040;-72
2021/03/13 04:23:07;;;;;;;3.10;0.60;;;7.00;99.90;;;;;;4916370;29;20040;-72
2021/03/13 04:25:33;;;;;;;4.05;0.80;;;7.00;99.90;;;;;;4898471;29;20104;-73
2021/03/13 04:27:59;;;;;;;1.67;0.68;;;7.00;99.90;;;;;;4899170;29;20032;-72
2021/03/13 04:30:26;;;;;;;1.88;0.57;;;7.00;99.90;;;;;;4915656;29;20047;-72
2021/03/13 04:32:54;;;;;;;1.98;0.52;;;7.00;99.90;;;;;;4899206;29;20028;-72
2021/03/13 04:35:24;;;;;;;2.00;0.55;;;7.00;99.90;;;;;;4898608;29;20095;-72
2021/03/13 04:37:50;;;;;;;4.43;0.80;;;7.00;99.90;;;;;;4916025;29;20502;-72
2021/03/13 04:40:17;;;;;;;2.17;0.93;;;7.00;99.90;;;;;;4915231;29;20040;-72
2021/03/13 04:42:45;;;;;;;2.75;0.60;;;7.00;99.90;;;;;;4915898;29;20174;-73
2021/03/13 04:45:13;;;;;;;2.05;0.70;;;6.90;99.90;;;;;;4915521;29;20106;-73
2021/03/13 04:47:49;;;;;;;4.43;0.88;;;7.00;99.90;;;;;;4898653;29;20111;-72
2021/03/13 04:50:20;;;;;;;0.85;0.22;;;7.00;99.90;;;;;;4914952;29;20154;-72
2021/03/13 04:52:47;;;;;;;2.80;0.47;;;7.00;99.90;;;;;;4915531;29;20500;-72
2021/03/13 04:55:13;;;;;;;1.08;0.60;;;7.00;99.90;;;;;;4914986;29;20138;-71
2021/03/13 04:57:39;;;;;;;4.85;0.70;;;7.00;99.90;;;;;;4915288;29;20032;-72
2021/03/13 05:00:07;;;;;;;3.63;0.60;;;6.90;99.90;;;;;;4915849;29;20040;-73
2021/03/13 05:02:33;;;;;;;1.95;0.40;;;7.00;99.90;;;;;;4914956;29;20359;-72
2021/03/13 05:04:59;;;;;;;5.05;0.65;;;7.00;99.90;;;;;;4915342;29;20173;-72
2021/03/13 05:07:24;;;;;;;4.05;0.50;;;7.00;99.90;;;;;;4891141;29;20045;-73
2021/03/13 05:09:50;;;;;;;2.38;0.77;;;7.00;99.90;;;;;;4879713;29;20127;-72
2021/03/13 05:12:15;;;;;;;3.90;0.73;;;7.00;99.90;;;;;;4878798;29;20093;-72
2021/03/13 05:14:41;;;;;;;2.42;0.75;;;7.00;99.90;;;;;;4879756;29;20028;-71
2021/03/13 05:17:07;;;;;;;2.45;0.77;;;7.00;99.90;;;;;;4879863;29;20354;-72
2021/03/13 05:19:33;;;;;;;1.88;0.20;;;6.90;99.90;;;;;;4879052;29;20414;-72
2021/03/13 05:21:59;;;;;;;0.98;0.40;;;7.00;99.90;;;;;;4879250;29;20032;-72
2021/03/13 05:24:25;;;;;;;2.58;0.30;;;7.00;99.90;;;;;;4878807;29;20064;-70
2021/03/13 05:26:50;;;;;;;2.90;0.50;;;7.00;99.90;;;;;;4896537;29;20029;-72
2021/03/13 05:29:16;;;;;;;0.98;0.20;;;7.00;99.90;;;;;;4878585;29;20024;-71
2021/03/13 05:31:42;;;;;;;3.20;1.55;;;7.00;99.90;;;;;;4879858;29;20028;-72
2021/03/13 05:34:07;;;;;;;3.08;0.28;;;7.00;99.90;;;;;;4879307;29;20044;-72
2021/03/13 05:36:33;;;;;;;1.55;0.22;;;7.10;99.90;;;;;;4878349;29;20036;-73
2021/03/13 05:38:59;;;;;;;5.05;0.47;;;7.10;99.90;;;;;;4879423;29;20064;-72
2021/03/13 05:41:25;;;;;;;2.38;0.30;;;7.10;99.90;;;;;;4895241;29;20420;-71
2021/03/13 05:43:52;;;;;;;1.65;0.20;;;7.10;99.90;;;;;;4879308;29;20048;-73
2021/03/13 05:46:18;;;;;;;1.33;0.40;;;7.20;99.90;;;;;;4895577;29;20055;-71
2021/03/13 05:48:44;;;;;;;2.05;0.40;;;7.10;99.90;;;;;;4879129;29;20052;-72
2021/03/13 05:51:13;;;;;;;4.85;0.40;;;7.30;99.90;;;;;;4895835;29;20139;-72
2021/03/13 05:53:41;;;;;;;2.53;0.55;;;7.20;99.90;;;;;;4895250;29;20423;-72
2021/03/13 05:56:11;;;;;;;1.25;0.40;;;7.20;99.90;;;;;;4879015;29;20036;-73
2021/03/13 05:58:38;;;;;;;1.20;0.30;;;7.20;99.90;;;;;;4878526;29;20319;-71
2021/03/13 06:01:05;;;;;;;2.70;0.40;;;7.20;99.90;;;;;;4895857;29;20515;-72
2021/03/13 06:03:33;;;;;;;2.10;0.70;;;7.30;99.90;;;;;;4895181;29;20123;-73
2021/03/13 06:06:00;;;;;;;1.98;0.30;;;7.30;99.90;;;;;;4879208;29;20492;-72
2021/03/13 06:08:26;;;;;;;3.95;0.50;;;7.30;99.90;;;;;;4892683;29;20158;-73
2021/03/13 06:10:52;;;;;;;5.03;1.05;;;7.30;99.90;;;;;;4897892;29;20489;-72
2021/03/13 06:13:18;;;;;;;4.63;0.60;;;7.30;99.90;;;;;;4897067;29;20032;-72
2021/03/13 06:15:47;;;;;;;4.95;0.65;;;7.40;99.90;;;;;;4917812;29;20032;-72
2021/03/13 06:18:12;;;;;;;2.30;0.45;;;7.50;99.90;;;;;;4918890;29;20050;-73
2021/03/13 06:20:39;;;;;;;2.03;0.40;;;7.50;99.90;;;;;;4918240;29;20393;-72
2021/03/13 06:23:07;;;;;;;4.90;0.70;;;7.50;99.90;;;;;;4918278;29;20509;-72
2021/03/13 06:25:39;;;;;;;6.75;1.02;;;7.50;99.90;;;;;;4900744;29;20028;-71
2021/03/13 06:28:17;;;;;;;3.20;0.93;;;7.50;99.90;;;;;;4901472;29;20040;-72
2021/03/13 06:30:48;;;;;;;7.35;0.85;;;7.50;99.90;;;;;;4918003;29;20577;-73
2021/03/13 06:33:31;;;;;;;8.55;1.52;;;7.60;99.90;;;;;;4901273;29;20145;-73
2021/03/13 06:36:00;;;;;;;2.90;0.75;;;7.60;99.90;;;;;;4901094;29;20028;-73
2021/03/13 06:38:28;;;;;;;5.55;0.90;;;7.60;99.90;;;;;;4900392;29;20044;-71
2021/03/13 06:40:56;;;;;;;6.90;1.48;;;7.70;99.90;;;;;;4901099;29;20032;-72
2021/03/13 06:43:23;;;;;;;4.85;0.80;;;7.70;99.90;;;;;;4917655;29;20040;-72
2021/03/13 06:46:11;;;;;;;2.53;0.65;;;7.60;99.90;;;;;;4900938;29;20029;-73
2021/03/13 06:48:41;;;;;;;9.68;0.82;;;7.70;99.90;;;;;;4917337;29;20028;-72
2021/03/13 06:51:18;;;;;;;2.85;0.60;;;7.80;99.90;;;;;;4900915;29;20036;-72
2021/03/13 06:53:46;;;;;;;3.10;0.40;;;7.80;99.90;;;;;;4900266;29;20032;-72
2021/03/13 06:56:13;;;;;;;1.58;0.47;;;7.80;99.90;;;;;;4900579;29;20033;-72
2021/03/13 06:58:40;;;;;;;3.22;0.55;;;7.80;99.90;;;;;;4899962;29;20095;-71
2021/03/13 07:01:07;;;;;;;5.65;0.80;;;7.90;99.90;;;;;;4917434;29;20035;-71
2021/03/13 07:03:47;;;;;;;7.38;0.93;;;7.90;99.90;;;;;;4917101;29;20035;-72
2021/03/13 07:06:17;;;;;;;6.22;0.50;;;8.00;99.90;;;;;;4900379;29;20457;-71
2021/03/13 07:08:45;;;;;;;3.50;0.98;;;8.00;99.90;;;;;;4916762;29;20502;-72
2021/03/13 07:11:10;;;;;;;6.35;0.98;;;8.00;99.90;;;;;;4900734;29;20481;-71
2021/03/13 07:13:38;;;;;;;5.18;0.50;;;8.10;99.90;;;;;;4899975;29;20119;-72
2021/03/13 07:16:30;;;;;;;0.93;0.30;;;8.10;99.90;;;;;;4900933;29;20040;-72
2021/03/13 07:19:00;;;;;;;4.55;0.65;;;8.10;99.90;;;;;;4900240;29;20465;-72
2021/03/13 07:21:27;;;;;;;2.03;0.65;;;8.10;99.90;;;;;;4899872;29;20040;-72
2021/03/13 07:23:56;;;;;;;3.45;0.60;;;8.20;99.90;;;;;;4917478;29;20107;-72
2021/03/13 07:26:26;;;;;;;4.25;0.63;;;8.20;99.90;;;;;;4915999;29;20099;-71
2021/03/13 07:28:57;;;;;;;3.90;0.57;;;8.20;99.90;;;;;;4917604;29;20030;-71
2021/03/13 07:31:25;;;;;;;1.55;0.47;;;8.10;99.90;;;;;;4899543;29;20028;-71
2021/03/13 07:33:52;;;;;;;4.38;0.70;;;8.20;99.90;;;;;;4900423;29;20032;-73
2021/03/13 07:36:21;;;;;;;2.60;0.30;;;8.20;99.90;;;;;;4917463;29;20056;-72
2021/03/13 07:38:49;;;;;;;0.77;0.28;;;8.30;99.90;;;;;;4899525;29;20032;-73
2021/03/13 07:41:17;;;;;;;1.48;0.43;;;8.30;99.90;;;;;;4917188;29;20044;-72
2021/03/13 07:43:44;;;;;;;3.88;0.57;;;8.30;99.90;;;;;;4916251;29;20383;-72
2021/03/13 07:46:11;;;;;;;2.33;0.30;;;8.30;99.90;;;;;;4900066;29;20125;-71
2021/03/13 07:48:38;;;;;;;5.90;1.00;;;8.30;99.90;;;;;;4899305;29;20419;-72
2021/03/13 07:51:07;;;;;;;5.03;1.35;;;8.40;99.90;;;;;;4916732;29;20032;-71
2021/03/13 07:53:37;;;;;;;4.90;0.30;;;8.40;99.90;;;;;;4916232;29;20024;-72
2021/03/13 07:56:08;;;;;;;3.05;0.50;;;8.50;99.90;;;;;;4916713;29;20032;-71
2021/03/13 07:58:38;;;;;;;2.42;0.35;;;8.50;99.90;;;;;;4915978;29;20028;-71
2021/03/13 08:01:04;;;;;;;4.63;0.32;;;8.50;99.90;;;;;;4916703;29;20024;-73
2021/03/13 08:03:33;;;;;;;2.28;0.30;;;8.50;99.90;;;;;;4915844;29;20032;-72
2021/03/13 08:06:12;;;;;;;4.43;0.32;;;8.60;99.90;;;;;;4899313;29;20100;-72
2021/03/13 08:08:39;;;;;;;2.92;0.43;;;8.60;99.90;;;;;;4915660;29;20056;-71
2021/03/13 08:11:27;;;;;;;1.63;0.47;;;8.60;99.90;;;;;;4916499;29;20336;-72
2021/03/13 08:13:55;;;;;;;2.65;0.30;;;8.60;99.90;;;;;;4899541;29;20450;-73
2021/03/13 08:16:33;;;;;;;3.38;0.40;;;8.60;99.90;;;;;;4899474;29;20060;-72
2021/03/13 08:18:58;;;;;;;3.33;0.98;;;8.60;99.90;;;;;;4899137;29;20419;-71
2021/03/13 08:21:39;;;;;;;1.40;0.43;;;8.60;99.90;;;;;;4899115;29;20095;-72
2021/03/13 08:24:05;;;;;;;2.40;1.00;;;8.70;99.90;;;;;;4899278;29;20036;-72
2021/03/13 08:26:33;;;;;;;3.67;0.63;;;8.70;99.90;;;;;;4898345;29;20415;-72
2021/03/13 08:29:00;;;;;;;3.33;0.65;;;8.70;99.90;;;;;;4915595;29;20089;-74
2021/03/13 08:31:28;;;;;;;2.38;0.50;;;8.80;99.90;;;;;;4898639;29;20042;-71
2021/03/13 08:33:58;;;;;;;1.92;0.50;;;8.80;99.90;;;;;;4899106;29;20032;-71
2021/03/13 08:36:26;;;;;;;4.97;0.55;;;8.90;99.90;;;;;;4915498;29;20117;-73
2021/03/13 08:38:54;;;;;;;4.55;0.38;;;8.90;99.90;;;;;;4898575;29;20062;-72
2021/03/13 08:41:42;;;;;;;6.53;0.50;;;9.00;99.90;;;;;;4915487;29;20516;-73
2021/03/13 08:44:13;;;;;;;1.85;0.47;;;9.00;99.90;;;;;;4915628;29;20486;-74
2021/03/13 08:46:49;;;;;;;9.32;0.68;;;9.00;99.90;;;;;;4898359;29;20119;-72
2021/03/13 08:49:27;;;;;;;4.47;0.50;;;9.10;99.90;;;;;;4915731;29;20059;-75
2021/03/13 08:52:05;;;;;;;2.40;0.50;;;9.10;99.90;;;;;;4899101;29;20176;-73
2021/03/13 08:54:37;;;;;;;6.10;0.60;;;9.10;99.90;;;;;;4897420;29;20039;-74
2021/03/13 08:57:12;;;;;;;5.50;1.10;;;9.20;99.90;;;;;;4898419;29;20454;-73
2021/03/13 08:59:40;;;;;;;3.53;0.30;;;9.20;99.90;;;;;;4914519;29;20043;-74
2021/03/13 09:02:14;;;;;;;2.63;0.40;;;9.20;99.90;;;;;;4898208;29;20046;-72
2021/03/13 09:04:45;;;;;;;2.13;0.22;;;9.20;99.90;;;;;;4897933;29;20527;-73
2021/03/13 09:07:12;;;;;;;2.65;0.50;;;9.30;99.90;;;;;;4915598;29;20055;-73
2021/03/13 09:09:39;;;;;;;4.25;0.43;;;9.20;99.90;;;;;;4914890;29;20036;-73
2021/03/13 09:12:08;;;;;;;2.28;0.40;;;9.30;99.90;;;;;;4898892;29;20114;-73
2021/03/13 09:14:35;;;;;;;1.95;0.20;;;9.30;99.90;;;;;;4897691;29;20099;-72
2021/03/13 09:17:15;;;;;;;4.40;0.38;;;9.20;99.90;;;;;;4898162;29;20087;-74
2021/03/13 09:19:42;;;;;;;0.77;0.20;;;9.30;99.90;;;;;;4914404;29;20470;-75
2021/03/13 09:22:10;;;;;;;8.13;1.20;;;9.30;99.90;;;;;;4914578;29;20079;-73
2021/03/13 09:24:36;;;;;;;1.95;0.40;;;9.20;99.90;;;;;;4897507;29;20040;-73
2021/03/13 09:27:04;;;;;;;2.70;0.50;;;9.20;99.90;;;;;;4898120;29;20031;-73
2021/03/13 09:29:35;;;;;;;2.72;0.30;;;9.20;99.90;;;;;;4897465;29;20024;-74
2021/03/13 09:32:12;;;;;;;3.05;0.40;;;9.20;99.90;;;;;;4897812;29;20080;-74
2021/03/13 09:34:43;;;;;;;1.13;0.20;;;9.20;99.90;;;;;;4914408;29;20043;-74
2021/03/13 09:37:21;;;;;;;0.88;0.10;;;9.20;99.90;;;;;;4897622;29;20393;-75
2021/03/13 09:40:00;;;;;;;1.45;0.30;;;9.20;99.90;;;;;;4914129;29;20068;-75
2021/03/13 09:42:27;;;;;;;0.88;0.40;;;9.20;99.90;;;;;;4898034;29;20040;-74
2021/03/13 09:44:58;;;;;;;5.15;0.57;;;9.20;99.90;;;;;;4914115;29;20036;-74
2021/03/13 09:47:33;;;;;;;2.63;0.15;;;9.30;99.90;;;;;;4915275;29;20036;-72
2021/03/13 09:50:02;;;;;;;4.03;1.00;;;9.20;99.90;;;;;;4913779;29;20033;-74
2021/03/13 09:52:30;;;;;;;4.05;0.43;;;9.20;99.90;;;;;;4914774;29;20032;-73
2021/03/13 09:55:23;;;;;;;1.15;0.20;;;9.20;99.90;;;;;;4897359;29;20083;-74
2021/03/13 09:57:51;;;;;;;1.10;0.38;;;9.20;99.90;;;;;;4887645;29;20493;-75
2021/03/13 10:00:31;;;;;;;4.30;0.60;;;9.20;99.90;;;;;;4880525;29;20112;-73
2021/03/13 10:02:59;;;;;;;2.25;0.30;;;9.20;99.90;;;;;;4879386;29;20048;-74
2021/03/13 10:05:30;;;;;;;2.35;0.30;;;9.20;99.90;;;;;;4878905;29;20025;-74
2021/03/13 10:07:56;;;;;;;3.83;0.22;;;9.20;99.90;;;;;;4894657;29;20053;-75
2021/03/13 10:10:24;;;;;;;2.30;0.57;;;9.20;99.90;;;;;;4896099;29;20064;-73
2021/03/13 10:12:52;;;;;;;0.95;0.38;;;9.20;99.90;;;;;;4878160;29;20048;-73
2021/03/13 10:15:25;;;;;;;2.25;0.25;;;9.20;99.90;;;;;;4895450;29;20534;-73
2021/03/13 10:17:57;;;;;;;0.65;0.15;;;9.30;99.90;;;;;;4878349;29;20032;-73
2021/03/13 10:20:28;;;;;;;0.77;0.25;;;9.30;99.90;;;;;;4878630;29;20060;-73
2021/03/13 10:22:55;;;;;;;8.75;0.90;;;9.30;99.90;;;;;;4895265;29;20103;-74
2021/03/13 10:25:21;;;;;;;3.38;0.52;;;9.30;99.90;;;;;;4878998;29;20032;-73
2021/03/13 10:27:47;;;;;;;1.48;1.13;;;9.30;99.90;;;;;;4878164;29;20128;-74
2021/03/13 10:30:13;;;;;;;2.83;0.47;;;9.30;99.90;;;;;;4895661;29;20025;-72
2021/03/13 10:32:45;;;;;;;5.43;0.30;;;9.30;99.90;;;;;;4878226;29;20033;-74
2021/03/13 10:35:21;;;;;;;1.60;0.10;;;9.20;99.90;;;;;;4895295;29;20027;-71
2021/03/13 10:37:51;;;;;;;1.05;0.20;;;9.10;99.90;;;;;;4895070;29;20040;-71
2021/03/13 10:40:33;;;;;;;2.47;0.35;;;9.00;99.90;;;;;;4878509;29;20040;-72
2021/03/13 10:43:32;;;;;;;3.10;0.50;;;8.90;99.90;;;;;;4895387;29;20419;-73
2021/03/13 10:45:57;;;;;;;2.25;0.30;;;8.90;99.90;;;;;;4889105;29;20172;-78
2021/03/13 10:48:34;;;;;;;1.65;0.13;;;8.90;99.90;;;;;;4885215;29;20164;-77
2021/03/13 10:51:01;;;;;;;0.98;0.25;;;8.70;99.90;;;;;;4901126;29;20029;-77
2021/03/13 10:53:32;;;;;;;2.65;0.10;;;8.70;99.90;;;;;;4894842;29;20127;-78
2021/03/13 10:56:03;;;;;;;5.25;0.50;;;8.60;99.90;;;;;;4883272;29;20273;-78
2021/03/13 10:58:32;;;;;;;4.10;0.77;;;8.60;99.90;;;;;;4892567;29;20188;-79
2021/03/13 11:00:59;;;;;;;4.22;0.30;;;8.60;99.90;;;;;;4897342;29;20029;-79
2021/03/13 11:03:26;;;;;;;1.05;0.10;;;8.50;99.90;;;;;;4893602;29;20084;-74
2021/03/13 11:05:52;;;;;;;1.98;0.52;;;8.50;99.90;;;;;;4897491;29;20047;-75
2021/03/13 11:08:23;;;;;;;0.55;0.10;;;8.40;99.90;;;;;;4897324;29;20177;-75
2021/03/13 11:10:50;;;;;;;1.20;0.30;;;8.40;99.90;;;;;;4865674;29;20442;-74
2021/03/13 11:13:16;;;;;;;2.55;0.20;;;8.40;99.90;;;;;;4885170;29;20037;-76
2021/03/13 11:15:42;;;;;;;0.32;0.20;;;8.30;99.90;;;;;;4897610;29;20478;-75
2021/03/13 11:18:08;;;;;;;0.93;0.20;;;8.10;99.90;;;;;;4901657;29;20049;-76
2021/03/13 11:20:35;;;;;;;2.05;0.32;;;8.10;99.90;;;;;;4889808;29;20024;-74
2021/03/13 11:23:02;;;;;;;2.42;0.60;;;8.10;99.90;;;;;;4895994;29;20043;-71
2021/03/13 11:25:28;;;;;;;1.60;0.50;;;8.20;99.90;;;;;;4886378;29;20029;-71
2021/03/13 11:27:54;;;;;;;0.82;0.45;;;8.10;99.90;;;;;;4898805;29;20036;-70
2021/03/13 11:30:20;;;;;;;0.30;0.10;;;8.10;99.90;;;;;;4887971;29;20118;-73
2021/03/13 11:32:46;;;;;;;2.92;0.30;;;7.90;99.90;;;;;;4888593;29;20083;-69
2021/03/13 11:35:12;;;;;;;1.13;0.63;;;7.90;99.90;;;;;;4881740;29;20485;-71
2021/03/13 11:37:39;;;;;;;1.35;0.40;;;7.80;99.90;;;;;;4897396;29;20378;-72
2021/03/13 11:40:09;;;;;;;1.38;0.20;;;8.70;99.90;;;;;;4896365;29;20497;-71
2021/03/13 11:42:36;;;;;;;0.10;0.10;;;8.10;99.90;;;;;;4880559;29;20047;-71
2021/03/13 11:45:04;;;;;;;1.75;0.20;;;7.80;99.90;;;;;;4897654;29;20111;-71
2021/03/13 11:47:30;;;;;;;0.43;0.10;;;7.80;99.90;;;;;;4880978;29;20176;-72
2021/03/13 11:49:56;;;;;;;0.73;0.35;;;7.70;99.90;;;;;;4880184;29;20365;-71
2021/03/13 11:52:22;;;;;;;0.70;0.10;;;7.70;99.90;;;;;;4897376;29;20032;-71
2021/03/13 11:54:49;;;;;;;0.80;0.10;;;7.70;99.90;;;;;;4879929;29;20391;-71
2021/03/13 11:57:16;;;;;;;0.73;0.10;;;7.70;99.90;;;;;;4897829;29;20076;-71
2021/03/13 11:59:45;;;;;;;1.15;0.40;;;7.60;99.90;;;;;;4879894;29;20084;-71
2021/03/13 12:02:10;;;;;;;2.55;0.30;;;7.60;99.90;;;;;;4880785;29;20028;-71
2021/03/13 12:04:36;;;;;;;0.85;0.40;;;7.60;99.90;;;;;;4897161;29;20033;-70
2021/03/13 12:07:02;;;;;;;1.08;0.32;;;7.50;99.90;;;;;;4875902;29;20705;-71
2021/03/13 12:09:27;;;;;;;1.27;0.40;;;7.50;99.90;;;;;;4878810;29;20029;-72
2021/03/13 12:11:53;;;;;;;2.60;0.20;;;7.50;99.90;;;;;;4877411;29;20061;-71
2021/03/13 12:14:18;;;;;;;0.77;0.20;;;7.60;99.90;;;;;;4861599;29;20036;-71
2021/03/13 12:16:45;;;;;;;0.73;0.20;;;7.60;99.90;;;;;;4861094;29;20084;-72
2021/03/13 12:19:11;;;;;;;0.90;0.47;;;7.50;99.90;;;;;;4861702;29;20064;-72
2021/03/13 12:21:38;;;;;;;0.77;0.20;;;7.50;99.90;;;;;;4878875;29;20037;-72
2021/03/13 12:24:04;;;;;;;0.90;0.20;;;7.50;99.90;;;;;;4878925;29;20476;-72
2021/03/13 12:26:29;;;;;;;2.00;0.30;;;7.50;99.90;;;;;;4861882;29;20075;-72
2021/03/13 12:28:55;;;;;;;1.20;0.30;;;7.50;99.90;;;;;;4877834;29;20037;-71
2021/03/13 12:31:21;;;;;;;1.60;1.30;;;7.60;99.90;;;;;;4861610;29;20033;-71
2021/03/13 12:33:47;;;;;;;0.68;0.20;;;7.60;99.90;;;;;;4877835;29;20025;-71
2021/03/13 12:36:13;;;;;;;1.70;0.32;;;7.60;99.90;;;;;;4861881;29;20092;-73
2021/03/13 12:38:39;;;;;;;2.38;0.38;;;7.70;99.90;;;;;;4878197;29;20037;-71
2021/03/13 12:41:05;;;;;;;1.52;0.25;;;7.80;99.90;;;;;;4861578;29;20036;-71
2021/03/13 12:43:31;;;;;;;2.55;0.30;;;7.80;99.90;;;;;;4861350;29;20064;-70
2021/03/13 12:45:58;;;;;;;1.75;0.50;;;7.70;99.90;;;;;;4861090;29;20033;-70
2021/03/13 12:48:24;;;;;;;2.17;0.25;;;7.70;99.90;;;;;;4878487;29;20052;-72
2021/03/13 12:50:53;;;;;;;2.30;0.20;;;7.60;99.90;;;;;;4860886;29;20037;-71
2021/03/13 12:53:19;;;;;;;1.98;0.28;;;7.60;99.90;;;;;;4877850;29;20033;-72
2021/03/13 12:55:44;;;;;;;1.13;0.20;;;7.60;99.90;;;;;;4860906;29;20360;-71
2021/03/13 12:58:10;;;;;;;2.58;0.63;;;7.50;99.90;;;;;;4861560;29;20051;-71
2021/03/13 13:00:36;;;;;;;6.55;1.55;;;7.70;99.90;;;;;;4877962;29;20471;-72
2021/03/13 13:03:03;;;;;;;1.00;0.22;;;7.50;99.90;;;;;;4877541;29;20108;-72
2021/03/13 13:05:29;;;;;;;2.05;0.32;;;7.60;99.90;;;;;;4877567;29;20163;-75